• Join FlightAware (Why Join?)
  • Login
  • US Flag 
12:26AM EDT


 

Airport Tracker/Info


-or-


 

Live Flight TrackerFlight Track Log ✈ ABX502 ✈ 26-Jul-2013 ✈ KCVG - KDFW

Flight Track Log - Related Links

Times and Time Zones

All times are in EDT time to prevent confusion due to time zone crossing. See the ABX502 flight status page for this flight to view local times or setup timezone preferences in your user account.

Time Position Orientation Groundspeed Altitude Reporting Facility
EDT Latitude Longitude Course Direction KTS MPH feet Rate Location/Type
05:51AM 39.0500 -84.6833 270° West 149 171 1,500  Level Cincinnati TRACON
05:52AM 39.0500 -84.7667 270° West 212 244 3,200 1,800 Climbing Cincinnati TRACON
05:53AM 39.0167 -84.8167 229° Southwest 247 284 5,100 2,220 Climbing Cincinnati TRACON
05:54AM 38.9500 -84.8500 201° Southwest 288 331 7,500 1,740 Climbing Cincinnati TRACON
05:55AM 38.8656 -84.8711 191° South 278 320 8,900 1,560 Climbing Indianapolis Center
05:56AM 38.7842 -84.8933 192° South 294 338 10,900 1,860 Climbing Indianapolis Center
05:57AM 38.7067 -84.9631 215° Southwest 339 390 12,700 2,100 Climbing Indianapolis Center
05:58AM 38.6231 -85.0450 217° Southwest 367 422 15,200 2,280 Climbing Indianapolis Center
05:59AM 38.5397 -85.1306 219° Southwest 380 437 17,400 2,340 Climbing Indianapolis Center
06:00AM 38.4442 -85.2317 220° Southwest 390 449 20,000 2,280 Climbing Indianapolis Center
06:01AM 38.3547 -85.3217 218° Southwest 402 463 22,100 1,980 Climbing Indianapolis Center
06:02AM 38.2639 -85.4156 219° Southwest 413 475 24,100 1,740 Climbing Indianapolis Center
06:03AM 38.1672 -85.5136 219° Southwest 430 495 25,700 1,560 Climbing Indianapolis Center
06:04AM 38.0817 -85.6247 226° Southwest 447 514 27,300 1,560 Climbing Indianapolis Center
06:05AM 38.0183 -85.7592 239° Southwest 445 512 28,900 1,320 Climbing Indianapolis Center
06:06AM 37.9522 -85.8969 239° Southwest 451 519 30,000 1,440 Climbing Indianapolis Center
06:07AM 37.8847 -86.0369 239° Southwest 461 531 31,900 1,680 Climbing Indianapolis Center
06:08AM 37.8192 -86.1753 239° Southwest 456 525 33,400 1,320 Climbing Indianapolis Center
06:09AM 37.7603 -86.2975 239° Southwest 457 526 34,600 1,200 Climbing Indianapolis Center
06:10AM 37.6942 -86.4347 239° Southwest 455 524 35,900 1,260 Climbing Indianapolis Center
06:11AM 37.6208 -86.5875 239° Southwest 454 522 37,200 1,020 Climbing Indianapolis Center
06:12AM 37.5547 -86.7211 238° Southwest 449 517 38,000 360 Climbing Indianapolis Center
06:13AM 37.4981 -86.8378 239° Southwest 444 511 38,000  Level Indianapolis Center
06:14AM 37.4350 -86.9669 238° Southwest 434 499 38,000  Level Indianapolis Center
06:15AM 37.3717 -87.0972 239° Southwest 433 498 38,000  Level Indianapolis Center
06:16AM 37.3078 -87.2275 238° Southwest 435 501 38,000  Level Indianapolis Center
06:17AM 37.2439 -87.3592 239° Southwest 438 504 38,000  Level Indianapolis Center
06:18AM 37.1800 -87.4883 238° Southwest 436 502 38,000  Level Indianapolis Center
06:19AM 37.1136 -87.6189 238° Southwest 440 506 38,000  Level Indianapolis Center
06:20AM 37.0603 -87.7289 239° Southwest 436 502 38,000  Level Memphis Center
06:21AM 36.9983 -87.8556 239° Southwest 436 502 38,000  Level Memphis Center
06:22AM 36.9319 -87.9847 237° Southwest 436 502 38,000  Level Memphis Center
06:23AM 36.8597 -88.1244 237° Southwest 436 502 38,000  Level Memphis Center
06:24AM 36.8011 -88.2400 238° Southwest 436 502 38,000  Level Memphis Center
06:25AM 36.7347 -88.3686 237° Southwest 441 507 38,000  Level Memphis Center
06:26AM 36.6719 -88.4944 238° Southwest 441 507 38,000  Level Memphis Center
06:27AM 36.6031 -88.6253 237° Southwest 441 507 38,000  Level Memphis Center
06:28AM 36.5358 -88.7558 237° Southwest 446 513 38,000  Level Memphis Center
06:29AM 36.4708 -88.8861 238° Southwest 446 513 38,000 180 Level Memphis Center
06:30AM 36.4036 -89.0111 236° Southwest 446 513 38,400 540 Climbing Memphis Center
06:31AM 36.3506 -89.1381 243° Southwest 438 504 39,100 600 Climbing Memphis Center
06:32AM 36.2958 -89.2858 245° Southwest 438 504 39,600 420 Climbing Memphis Center
06:33AM 36.2428 -89.4408 247° West 451 519 40,000 180 Climbing Memphis Center
06:34AM 36.1958 -89.5803 247° West 446 513 40,000  Level Memphis Center
06:35AM 36.1486 -89.7144 246° West 439 505 40,000  Level Memphis Center
06:36AM 36.1011 -89.8458 246° West 427 491 40,000  Level Memphis Center
06:37AM 36.0539 -89.9797 246° West 427 491 40,000  Level Memphis Center
06:38AM 36.0061 -90.1133 246° West 427 491 40,000  Level Memphis Center
06:39AM 35.9564 -90.2417 244° Southwest 427 491 40,000  Level Memphis Center
06:40AM 35.9064 -90.3725 245° Southwest 422 486 40,000  Level Memphis Center
06:41AM 35.8561 -90.5056 245° Southwest 422 486 40,000  Level Memphis Center
06:42AM 35.8081 -90.6333 245° Southwest 422 486 40,000  Level Memphis Center
06:43AM 35.7597 -90.7586 245° Southwest 417 480 40,000  Level Memphis Center
06:44AM 35.7133 -90.8864 246° West 417 480 40,000  Level Memphis Center
06:45AM 35.6733 -91.0011 247° West 417 480 40,000  Level Memphis Center
06:46AM 35.6203 -91.1386 245° Southwest 410 472 40,000  Level Memphis Center
06:47AM 35.5736 -91.2606 245° Southwest 410 472 40,000 -120 Level Memphis Center
06:48AM 35.5267 -91.3825 245° Southwest 400 460 39,800 -660 Descending Memphis Center
06:49AM 35.4861 -91.4867 244° Southwest 394 453 38,700 -960 Descending Memphis Center
06:50AM 35.4392 -91.6058 244° Southwest 394 453 37,900 -360 Descending Memphis Center
06:51AM 35.3900 -91.7322 245° Southwest 400 460 38,000  Climbing Memphis Center
06:52AM 35.3425 -91.8589 245° Southwest 400 460 38,000  Level Memphis Center
06:53AM 35.2886 -91.9953 244° Southwest 405 466 38,000  Level Memphis Center
06:54AM 35.2369 -92.1239 244° Southwest 410 472 38,000  Level Memphis Center
06:55AM 35.1911 -92.2500 246° West 410 472 38,000  Level Memphis Center
06:56AM 35.1414 -92.3758 244° Southwest 415 478 38,000  Level Memphis Center
06:57AM 35.0911 -92.5042 244° Southwest 421 484 38,000  Level Memphis Center
06:58AM 35.0389 -92.6294 243° Southwest 421 484 38,000  Level Memphis Center
06:59AM 34.9883 -92.7600 245° Southwest 421 484 38,000  Level Memphis Center
07:00AM 34.9381 -92.8878 244° Southwest 421 484 38,000  Level Memphis Center
07:01AM 34.8872 -93.0178 245° Southwest 421 484 38,000  Level Memphis Center
07:02AM 34.8344 -93.1453 243° Southwest 421 484 38,000  Level Memphis Center
07:03AM 34.7814 -93.2775 244° Southwest 421 484 38,000  Level Memphis Center
07:04AM 34.7322 -93.4072 245° Southwest 421 484 38,000  Level Memphis Center
07:05AM 34.6767 -93.5417 243° Southwest 427 491 38,000  Level Memphis Center
07:07AM 34.5703 -93.8122 245° Southwest 427 491 38,000  Level Fort Worth Center
07:08AM 34.5133 -93.9408 242° Southwest 432 497 38,000  Level Fort Worth Center
07:09AM 34.4564 -94.0689 242° Southwest 438 504 38,000  Level Fort Worth Center
07:10AM 34.3994 -94.1994 242° Southwest 438 504 38,000  Level Fort Worth Center
07:11AM 34.3419 -94.3247 241° Southwest 438 504 38,000  Level Fort Worth Center
07:12AM 34.2867 -94.4550 243° Southwest 438 504 38,000  Level Fort Worth Center
07:13AM 34.2292 -94.5850 242° Southwest 438 504 38,000  Level Fort Worth Center
07:14AM 34.1733 -94.7075 241° Southwest 438 504 38,000  Level Fort Worth Center
07:15AM 34.1136 -94.8397 241° Southwest 438 504 38,000  Level Fort Worth Center
07:16AM 34.0578 -94.9667 242° Southwest 445 512 38,000 -120 Level Fort Worth Center
07:17AM 33.9975 -95.0936 240° Southwest 439 505 37,800 -1,500 Descending Fort Worth Center
07:18AM 33.9394 -95.2228 242° Southwest 439 505 35,100 -3,060 Descending Fort Worth Center
07:19AM 33.8811 -95.3544 242° Southwest 439 505 31,700 -3,060 Descending Fort Worth Center
07:20AM 33.8206 -95.4833 241° Southwest 439 505 29,000 -2,760 Descending Fort Worth Center
07:21AM 33.7597 -95.6122 240° Southwest 440 506 26,300 -2,700 Descending Fort Worth Center
07:22AM 33.7072 -95.7356 243° Southwest 433 498 23,700 -2,580 Descending Fort Worth Center
07:23AM 33.6503 -95.8514 239° Southwest 422 486 21,200 -2,340 Descending Fort Worth Center
07:24AM 33.6056 -95.9544 243° Southwest 405 466 19,100 -2,340 Descending Fort Worth Center
07:25AM 33.5525 -96.0700 241° Southwest 378 435 16,600 -2,400 Descending Fort Worth Center
07:26AM 33.5056 -96.1728 241° Southwest 358 412 14,300 -2,160 Descending Fort Worth Center
07:27AM 33.4586 -96.2731 241° Southwest 353 406 12,300 -1,620 Descending Fort Worth Center
07:28AM 33.4136 -96.3683 241° Southwest 348 400 11,100 -1,140 Descending Fort Worth Center
07:29AM 33.3639 -96.4408 231° Southwest 313 360 10,100 -1,260 Descending Fort Worth Center
07:30AM 33.3333 -96.4833 229° Southwest 278 320 9,100 -1,560 Descending Dallas / Fort Worth TRACON
07:31AM 33.2833 -96.5500 228° Southwest 272 313 7,700 -1,380 Descending Dallas / Fort Worth TRACON
07:32AM 33.2667 -96.6333 257° West 266 306 6,400 -1,260 Descending Dallas / Fort Worth TRACON
07:33AM 33.2333 -96.7167 244° Southwest 257 296 5,000 -780 Descending Dallas / Fort Worth TRACON
07:34AM 33.2167 -96.8000 257° West 260 299 4,800 -540 Descending Dallas / Fort Worth TRACON
07:35AM 33.1833 -96.8667 239° Southwest 245 282 4,000 -780 Descending Dallas / Fort Worth TRACON
07:36AM 33.1333 -96.9167 220° Southwest 236 272 3,400 -540 Descending Dallas / Fort Worth TRACON
07:37AM 33.1000 -96.9833 239° Southwest 207 238 3,000 -240 Descending Dallas / Fort Worth TRACON
07:38AM 33.0667 -97.0333 232° Southwest 167 192 3,000 -240 Level Dallas / Fort Worth TRACON
07:39AM 33.0333 -97.0500 203° Southwest 156 180 2,600 -600 Descending Dallas / Fort Worth TRACON
07:40AM 32.9833 -97.0500 180° South 150 173 1,800 -720 Descending Dallas / Fort Worth TRACON
07:41AM 32.9500 -97.0500 180° South 126 145 1,200 -660 Descending Dallas / Fort Worth TRACON
07:43AM 32.8968 -97.0380 206° Southwest  Level Estimated
07:50AM 32.8968 -97.0380 206° Southwest  Level Estimated